Aeroporto :
LOGIN :

Iscrizione | Disclaimer

   EN    FR    IT 

 










Sommario :    VFR   VFR Marginale   IFR   IFR Intensivo   IFR Molto Intensivo
Visibilità : 
Base nubi : 
>= 8 km
>= 3000ft
5 / 8 km
1000 / 3000 ft
1500m / 5 km
500 / 1000 ft
800 / 1500m
200 / 500 ft
< 800m
< 200 ft
Simboli :   Temporali  Nebbia  Neve Forte  Precipitazioni Forti  Vento > 20 kt
SIGMETs :   Varie  Temporali  Ghiacco  Turbolenza  Onda orograficha  Ceneri Vulcaniche







- Altitudine del aeroporto : 50 ft
- Codice IATA : KOI
- Carte del aeroporto


EGPA - Kirkwall

ULTIMO METAR :
  • 210520Z 27006KT 9999 VCSH FEW005 SCT008 BKN018 12/11 Q1012

METARs OBSOLETI :
  • 210450Z AUTO 26004KT 4500 HZ FEW009/// SCT013/// BKN018/// 12/11 Q1012
  • 210420Z AUTO 24004KT 9999 FEW011/// BKN013/// 12/11 Q1012
  • 210350Z AUTO 26007KT 5000 BKN011/// 12/10 Q1012
  • 210320Z AUTO 26005KT 9999 BKN012/// 12/10 Q1012
  • 210250Z AUTO 28007KT 9999 BKN012/// 12/10 Q1012

TAF TAF EGPA
Valido dal 21 a 06 ore il 21 a 15 ore UTC


210500Z 2106/2115 27007KT 9999 SCT012 BKN020
TEMPO 2106/2113 6000 BKN008
PROB40
TEMPO 2106/2109 3000 -RADZ BKN004
Nessun NOTAM noto per questo aeroporto.



MetMap, La meteo Aeronautica in un colpo d'occhio ! - Copyright ORBIFLY Dicembre 2007 - Disclaimer

ORBIFLY MET'MAP TEAM :

Programmazione e sviluppo : Alexandra Zaïnal
Concezione e sviluppo : Baudouin d'Aumeries
Co-Programmazione e sviluppo : Marc-Olivier Méhu
Supporto tecnico e logistico : Manuel Goepfert
Aiuto per la traduzione : Arnaldo La Scala

Contatto : metmap@orbifly.com




FONTI E CREDITI :

   NOAA